Current | Forecast
Updated: 2:30 AM CEST on October 22, 2017
Observed at Kosice, Slovakia
Temperature 8°C
Windchill 6°C
Humidity 93%
Dew Point 7°C
Wind North at 9 km/h
Pressure 1016 hPa (Steady)
Conditions Mist
Visibility 3.5 kilometers
UV N/A
Clouds
Yesterday's Maximum 12°C
Yesterday's Minimum 9°C approx.
Yesterday's Heating Degree Days 14 approx.
Sunrise7:02 AM CEST
Sunset5:28 PM CEST
Moon Rise9:24 AM CEST
Moon Set7:16 PM CEST
Moon PhaseMoon Phase
Waxing Crescent
Raw METARMETAR LZKZ 220030Z 01005KT 3500 BR NSC 08/07 Q1016


Monday
. High: 66° F.
Tuesday
. High: 64° F.
Wednesday
. High: 78° F.
Thursday
. High: 82° F.
Friday
. High: 73° F.
Saturday
. High: 71° F.
Sunday
. High: 77° F.
Monday
. High: 75° F.

Units: English | Metric

Find the Weather for any City, State or Zipcode, or Country:

U.S. State List | Severe Weather | Tropical Storms | Ski Conditions
United States | Canada | Central America | South America | Asia | Europe | Australia | Africa | Islands

Weather Underground

© Copyright 2017
The Weather Company, LLC